sensor_id;sensor_type;location;lat;lon;timestamp;temperature;humidity
22383;DHT22;11359;45.802;13.530;2022-07-04T00:01:05;29.80;35.70
22383;DHT22;11359;45.802;13.530;2022-07-04T00:03:31;29.80;35.70
22383;DHT22;11359;45.802;13.530;2022-07-04T00:05:57;29.80;35.70
22383;DHT22;11359;45.802;13.530;2022-07-04T00:08:22;29.80;35.70
22383;DHT22;11359;45.802;13.530;2022-07-04T00:10:48;29.80;35.70
22383;DHT22;11359;45.802;13.530;2022-07-04T00:13:14;29.80;35.80
22383;DHT22;11359;45.802;13.530;2022-07-04T00:15:40;29.80;35.70
22383;DHT22;11359;45.802;13.530;2022-07-04T00:18:06;29.70;35.60
22383;DHT22;11359;45.802;13.530;2022-07-04T00:20:31;29.70;35.60
22383;DHT22;11359;45.802;13.530;2022-07-04T00:22:57;29.70;35.60
22383;DHT22;11359;45.802;13.530;2022-07-04T00:25:23;29.70;35.50
22383;DHT22;11359;45.802;13.530;2022-07-04T00:27:49;29.70;35.50
22383;DHT22;11359;45.802;13.530;2022-07-04T00:30:14;29.60;35.40
22383;DHT22;11359;45.802;13.530;2022-07-04T00:32:40;29.60;35.40
22383;DHT22;11359;45.802;13.530;2022-07-04T00:35:06;29.50;35.40
22383;DHT22;11359;45.802;13.530;2022-07-04T00:37:32;29.50;35.30
22383;DHT22;11359;45.802;13.530;2022-07-04T00:39:58;29.50;36.00
22383;DHT22;11359;45.802;13.530;2022-07-04T00:42:24;29.40;35.30
22383;DHT22;11359;45.802;13.530;2022-07-04T00:44:50;29.40;35.40
22383;DHT22;11359;45.802;13.530;2022-07-04T00:47:15;29.40;35.50
22383;DHT22;11359;45.802;13.530;2022-07-04T00:49:41;29.40;35.60
22383;DHT22;11359;45.802;13.530;2022-07-04T00:52:07;29.40;35.60
22383;DHT22;11359;45.802;13.530;2022-07-04T00:54:33;29.30;35.60
22383;DHT22;11359;45.802;13.530;2022-07-04T00:56:59;29.30;35.60
22383;DHT22;11359;45.802;13.530;2022-07-04T00:59:27;29.30;35.60
22383;DHT22;11359;45.802;13.530;2022-07-04T01:01:53;29.30;35.60
22383;DHT22;11359;45.802;13.530;2022-07-04T01:04:19;29.30;35.60
22383;DHT22;11359;45.802;13.530;2022-07-04T01:06:45;29.20;35.60
22383;DHT22;11359;45.802;13.530;2022-07-04T01:09:12;29.20;35.60
22383;DHT22;11359;45.802;13.530;2022-07-04T01:11:37;29.20;35.60
22383;DHT22;11359;45.802;13.530;2022-07-04T01:14:03;29.10;35.60
22383;DHT22;11359;45.802;13.530;2022-07-04T01:16:32;29.10;35.60
22383;DHT22;11359;45.802;13.530;2022-07-04T01:18:57;29.10;35.70
22383;DHT22;11359;45.802;13.530;2022-07-04T01:21:23;29.10;35.70
22383;DHT22;11359;45.802;13.530;2022-07-04T01:23:49;29.10;35.70
22383;DHT22;11359;45.802;13.530;2022-07-04T01:26:15;29.00;35.60
22383;DHT22;11359;45.802;13.530;2022-07-04T01:28:40;29.00;35.60
22383;DHT22;11359;45.802;13.530;2022-07-04T01:31:06;29.00;35.60
22383;DHT22;11359;45.802;13.530;2022-07-04T01:33:32;29.00;35.70
22383;DHT22;11359;45.802;13.530;2022-07-04T01:35:59;29.00;35.80
22383;DHT22;11359;45.802;13.530;2022-07-04T01:38:24;29.00;35.80
22383;DHT22;11359;45.802;13.530;2022-07-04T01:40:50;28.90;35.80
22383;DHT22;11359;45.802;13.530;2022-07-04T01:43:16;28.90;35.80
22383;DHT22;11359;45.802;13.530;2022-07-04T01:45:42;28.90;35.90
22383;DHT22;11359;45.802;13.530;2022-07-04T01:48:09;28.90;36.00
22383;DHT22;11359;45.802;13.530;2022-07-04T01:50:35;28.90;36.10
22383;DHT22;11359;45.802;13.530;2022-07-04T01:53:01;28.90;36.10
22383;DHT22;11359;45.802;13.530;2022-07-04T01:55:27;28.90;36.20
22383;DHT22;11359;45.802;13.530;2022-07-04T01:57:53;28.90;36.20
22383;DHT22;11359;45.802;13.530;2022-07-04T02:00:19;28.90;36.10
22383;DHT22;11359;45.802;13.530;2022-07-04T02:03:03;28.90;36.10
22383;DHT22;11359;45.802;13.530;2022-07-04T02:05:29;28.90;36.10
22383;DHT22;11359;45.802;13.530;2022-07-04T02:07:55;28.80;36.10
22383;DHT22;11359;45.802;13.530;2022-07-04T02:10:20;28.80;36.20
22383;DHT22;11359;45.802;13.530;2022-07-04T02:12:46;28.80;36.30
22383;DHT22;11359;45.802;13.530;2022-07-04T02:15:38;28.70;36.20
22383;DHT22;11359;45.802;13.530;2022-07-04T02:18:05;28.70;36.20
22383;DHT22;11359;45.802;13.530;2022-07-04T02:20:32;28.70;36.20
22383;DHT22;11359;45.802;13.530;2022-07-04T02:22:58;28.70;36.30
22383;DHT22;11359;45.802;13.530;2022-07-04T02:25:24;28.70;36.50
22383;DHT22;11359;45.802;13.530;2022-07-04T02:27:50;28.60;36.40
22383;DHT22;11359;45.802;13.530;2022-07-04T02:30:16;28.60;36.50
22383;DHT22;11359;45.802;13.530;2022-07-04T02:32:42;28.60;36.50
22383;DHT22;11359;45.802;13.530;2022-07-04T02:35:08;28.60;36.60
22383;DHT22;11359;45.802;13.530;2022-07-04T02:37:34;28.60;36.70
22383;DHT22;11359;45.802;13.530;2022-07-04T02:40:00;28.50;36.70
22383;DHT22;11359;45.802;13.530;2022-07-04T02:42:33;28.50;36.70
22383;DHT22;11359;45.802;13.530;2022-07-04T02:44:59;28.50;36.80
22383;DHT22;11359;45.802;13.530;2022-07-04T02:47:26;28.50;36.90
22383;DHT22;11359;45.802;13.530;2022-07-04T02:49:52;28.40;36.90
22383;DHT22;11359;45.802;13.530;2022-07-04T02:52:18;28.40;37.00
22383;DHT22;11359;45.802;13.530;2022-07-04T02:54:44;28.40;37.10
22383;DHT22;11359;45.802;13.530;2022-07-04T02:57:11;28.40;37.20
22383;DHT22;11359;45.802;13.530;2022-07-04T02:59:37;28.40;37.20
22383;DHT22;11359;45.802;13.530;2022-07-04T03:02:03;28.40;37.20
22383;DHT22;11359;45.802;13.530;2022-07-04T03:04:29;28.40;37.20
22383;DHT22;11359;45.802;13.530;2022-07-04T03:06:55;28.30;37.20
22383;DHT22;11359;45.802;13.530;2022-07-04T03:09:20;28.30;37.20
22383;DHT22;11359;45.802;13.530;2022-07-04T03:11:46;28.30;37.30
22383;DHT22;11359;45.802;13.530;2022-07-04T03:14:11;28.30;37.40
22383;DHT22;11359;45.802;13.530;2022-07-04T03:16:37;28.30;37.50
22383;DHT22;11359;45.802;13.530;2022-07-04T03:19:03;28.20;37.50
22383;DHT22;11359;45.802;13.530;2022-07-04T03:21:29;28.30;37.60
22383;DHT22;11359;45.802;13.530;2022-07-04T03:23:55;28.20;37.60
22383;DHT22;11359;45.802;13.530;2022-07-04T03:26:28;28.20;37.60
22383;DHT22;11359;45.802;13.530;2022-07-04T03:28:55;28.20;37.70
22383;DHT22;11359;45.802;13.530;2022-07-04T03:31:21;28.20;37.70
22383;DHT22;11359;45.802;13.530;2022-07-04T03:33:47;28.20;37.80
22383;DHT22;11359;45.802;13.530;2022-07-04T03:36:13;28.20;37.80
22383;DHT22;11359;45.802;13.530;2022-07-04T03:38:39;28.10;37.80
22383;DHT22;11359;45.802;13.530;2022-07-04T03:41:05;28.10;37.90
22383;DHT22;11359;45.802;13.530;2022-07-04T03:43:30;28.10;38.00
22383;DHT22;11359;45.802;13.530;2022-07-04T03:45:56;28.10;38.00
22383;DHT22;11359;45.802;13.530;2022-07-04T03:48:22;28.10;38.10
22383;DHT22;11359;45.802;13.530;2022-07-04T03:50:47;28.00;38.10
22383;DHT22;11359;45.802;13.530;2022-07-04T03:53:13;28.10;38.20
22383;DHT22;11359;45.802;13.530;2022-07-04T03:55:41;28.10;38.30
22383;DHT22;11359;45.802;13.530;2022-07-04T03:58:07;28.10;38.40
22383;DHT22;11359;45.802;13.530;2022-07-04T04:00:33;28.00;38.40
22383;DHT22;11359;45.802;13.530;2022-07-04T04:02:58;28.00;38.50
22383;DHT22;11359;45.802;13.530;2022-07-04T04:05:24;28.00;38.50
22383;DHT22;11359;45.802;13.530;2022-07-04T04:08:00;28.00;38.60
22383;DHT22;11359;45.802;13.530;2022-07-04T04:10:27;28.00;38.70
22383;DHT22;11359;45.802;13.530;2022-07-04T04:12:53;28.00;38.70
22383;DHT22;11359;45.802;13.530;2022-07-04T04:15:19;28.00;38.80
22383;DHT22;11359;45.802;13.530;2022-07-04T04:17:45;28.00;38.90
22383;DHT22;11359;45.802;13.530;2022-07-04T04:20:11;28.00;38.90
22383;DHT22;11359;45.802;13.530;2022-07-04T04:22:36;28.00;38.90
22383;DHT22;11359;45.802;13.530;2022-07-04T04:25:03;28.00;39.00
22383;DHT22;11359;45.802;13.530;2022-07-04T04:27:28;28.00;39.00
22383;DHT22;11359;45.802;13.530;2022-07-04T04:29:54;28.00;39.10
22383;DHT22;11359;45.802;13.530;2022-07-04T04:32:20;28.10;39.20
22383;DHT22;11359;45.802;13.530;2022-07-04T04:34:45;28.00;39.20
22383;DHT22;11359;45.802;13.530;2022-07-04T04:37:11;28.00;39.30
22383;DHT22;11359;45.802;13.530;2022-07-04T04:39:36;28.00;39.30
22383;DHT22;11359;45.802;13.530;2022-07-04T04:42:02;28.00;40.00
22383;DHT22;11359;45.802;13.530;2022-07-04T04:44:28;28.00;39.30
22383;DHT22;11359;45.802;13.530;2022-07-04T04:46:54;28.10;39.40
22383;DHT22;11359;45.802;13.530;2022-07-04T04:49:19;28.10;39.40
22383;DHT22;11359;45.802;13.530;2022-07-04T04:51:45;28.10;39.40
22383;DHT22;11359;45.802;13.530;2022-07-04T04:54:11;28.10;39.50
22383;DHT22;11359;45.802;13.530;2022-07-04T04:56:37;28.20;39.60
22383;DHT22;11359;45.802;13.530;2022-07-04T04:59:02;28.20;39.70
22383;DHT22;11359;45.802;13.530;2022-07-04T05:01:28;28.20;39.80
22383;DHT22;11359;45.802;13.530;2022-07-04T05:03:54;28.20;39.70
22383;DHT22;11359;45.802;13.530;2022-07-04T05:06:20;28.30;39.80
22383;DHT22;11359;45.802;13.530;2022-07-04T05:08:45;28.30;39.80
22383;DHT22;11359;45.802;13.530;2022-07-04T05:11:11;28.30;39.90
22383;DHT22;11359;45.802;13.530;2022-07-04T05:13:37;28.40;40.00
22383;DHT22;11359;45.802;13.530;2022-07-04T05:16:03;28.40;40.10
22383;DHT22;11359;45.802;13.530;2022-07-04T05:18:29;28.40;40.00
22383;DHT22;11359;45.802;13.530;2022-07-04T05:20:55;28.40;40.00
22383;DHT22;11359;45.802;13.530;2022-07-04T05:23:21;28.50;40.00
22383;DHT22;11359;45.802;13.530;2022-07-04T05:25:47;28.50;40.00
22383;DHT22;11359;45.802;13.530;2022-07-04T05:28:13;28.50;40.00
22383;DHT22;11359;45.802;13.530;2022-07-04T05:30:39;28.60;40.10
22383;DHT22;11359;45.802;13.530;2022-07-04T05:33:05;28.60;40.10
22383;DHT22;11359;45.802;13.530;2022-07-04T05:35:31;28.60;40.20
22383;DHT22;11359;45.802;13.530;2022-07-04T05:37:57;28.60;40.30
22383;DHT22;11359;45.802;13.530;2022-07-04T05:40:23;28.60;40.40
22383;DHT22;11359;45.802;13.530;2022-07-04T05:42:48;28.70;40.50
22383;DHT22;11359;45.802;13.530;2022-07-04T05:45:14;28.70;40.60
22383;DHT22;11359;45.802;13.530;2022-07-04T05:47:41;28.80;40.60
22383;DHT22;11359;45.802;13.530;2022-07-04T05:50:07;28.80;40.70
22383;DHT22;11359;45.802;13.530;2022-07-04T05:52:32;28.80;40.70
22383;DHT22;11359;45.802;13.530;2022-07-04T05:54:58;28.90;40.80
22383;DHT22;11359;45.802;13.530;2022-07-04T05:57:24;28.90;40.80
22383;DHT22;11359;45.802;13.530;2022-07-04T05:59:49;28.90;40.80
22383;DHT22;11359;45.802;13.530;2022-07-04T06:02:15;28.90;40.80
22383;DHT22;11359;45.802;13.530;2022-07-04T06:04:41;29.00;41.00
22383;DHT22;11359;45.802;13.530;2022-07-04T06:07:08;29.00;41.70
22383;DHT22;11359;45.802;13.530;2022-07-04T06:09:34;29.10;41.10
22383;DHT22;11359;45.802;13.530;2022-07-04T06:11:59;29.10;41.00
22383;DHT22;11359;45.802;13.530;2022-07-04T06:14:25;29.10;41.00
22383;DHT22;11359;45.802;13.530;2022-07-04T06:16:51;29.20;41.10
22383;DHT22;11359;45.802;13.530;2022-07-04T06:19:16;29.20;41.00
22383;DHT22;11359;45.802;13.530;2022-07-04T06:21:42;29.20;41.00
22383;DHT22;11359;45.802;13.530;2022-07-04T06:24:08;29.20;41.00
22383;DHT22;11359;45.802;13.530;2022-07-04T06:26:33;29.20;41.00
22383;DHT22;11359;45.802;13.530;2022-07-04T06:28:59;29.30;41.00
22383;DHT22;11359;45.802;13.530;2022-07-04T06:31:25;29.30;41.10
22383;DHT22;11359;45.802;13.530;2022-07-04T06:33:50;29.20;41.10
22383;DHT22;11359;45.802;13.530;2022-07-04T06:36:35;29.30;41.20
22383;DHT22;11359;45.802;13.530;2022-07-04T06:39:00;29.30;41.30
22383;DHT22;11359;45.802;13.530;2022-07-04T06:41:26;29.30;41.30
22383;DHT22;11359;45.802;13.530;2022-07-04T06:43:53;29.40;41.30
22383;DHT22;11359;45.802;13.530;2022-07-04T06:46:18;29.40;41.50
22383;DHT22;11359;45.802;13.530;2022-07-04T06:48:44;29.40;41.50
22383;DHT22;11359;45.802;13.530;2022-07-04T06:51:10;29.40;41.50
22383;DHT22;11359;45.802;13.530;2022-07-04T06:53:36;29.40;41.60
22383;DHT22;11359;45.802;13.530;2022-07-04T06:56:02;29.50;41.70
22383;DHT22;11359;45.802;13.530;2022-07-04T06:58:28;29.50;41.70
22383;DHT22;11359;45.802;13.530;2022-07-04T07:00:53;29.50;41.50
22383;DHT22;11359;45.802;13.530;2022-07-04T07:03:19;29.50;41.40
22383;DHT22;11359;45.802;13.530;2022-07-04T07:05:45;29.60;41.40
22383;DHT22;11359;45.802;13.530;2022-07-04T07:08:11;29.60;41.40
22383;DHT22;11359;45.802;13.530;2022-07-04T07:10:36;29.70;41.30
22383;DHT22;11359;45.802;13.530;2022-07-04T07:13:02;29.70;41.10
22383;DHT22;11359;45.802;13.530;2022-07-04T07:15:29;29.80;41.10
22383;DHT22;11359;45.802;13.530;2022-07-04T07:17:56;29.80;41.00
22383;DHT22;11359;45.802;13.530;2022-07-04T07:20:22;29.80;40.90
22383;DHT22;11359;45.802;13.530;2022-07-04T07:22:47;29.80;40.90
22383;DHT22;11359;45.802;13.530;2022-07-04T07:25:13;29.80;40.80
22383;DHT22;11359;45.802;13.530;2022-07-04T07:27:39;29.90;40.80
22383;DHT22;11359;45.802;13.530;2022-07-04T07:30:07;29.90;40.70
22383;DHT22;11359;45.802;13.530;2022-07-04T07:32:34;29.90;40.60
22383;DHT22;11359;45.802;13.530;2022-07-04T07:34:59;29.90;40.40
22383;DHT22;11359;45.802;13.530;2022-07-04T07:37:25;29.90;40.30
22383;DHT22;11359;45.802;13.530;2022-07-04T07:39:51;29.90;40.30
22383;DHT22;11359;45.802;13.530;2022-07-04T07:42:17;30.00;40.80
22383;DHT22;11359;45.802;13.530;2022-07-04T07:44:43;30.00;40.10
22383;DHT22;11359;45.802;13.530;2022-07-04T07:47:15;30.00;40.00
22383;DHT22;11359;45.802;13.530;2022-07-04T07:49:42;30.10;39.90
22383;DHT22;11359;45.802;13.530;2022-07-04T07:52:08;30.10;39.80
22383;DHT22;11359;45.802;13.530;2022-07-04T07:54:34;30.10;39.50
22383;DHT22;11359;45.802;13.530;2022-07-04T07:57:00;30.10;39.30
22383;DHT22;11359;45.802;13.530;2022-07-04T07:59:25;30.10;39.10
22383;DHT22;11359;45.802;13.530;2022-07-04T08:01:51;30.10;39.00
22383;DHT22;11359;45.802;13.530;2022-07-04T08:04:17;30.10;38.70
22383;DHT22;11359;45.802;13.530;2022-07-04T08:07:09;30.20;38.70
22383;DHT22;11359;45.802;13.530;2022-07-04T08:09:35;30.20;38.40
22383;DHT22;11359;45.802;13.530;2022-07-04T08:12:03;30.20;38.10
22383;DHT22;11359;45.802;13.530;2022-07-04T08:14:29;30.30;38.20
22383;DHT22;11359;45.802;13.530;2022-07-04T08:16:56;30.40;38.00
22383;DHT22;11359;45.802;13.530;2022-07-04T08:19:22;30.40;38.00
22383;DHT22;11359;45.802;13.530;2022-07-04T08:21:49;30.40;38.10
22383;DHT22;11359;45.802;13.530;2022-07-04T08:24:15;30.50;38.30
22383;DHT22;11359;45.802;13.530;2022-07-04T08:26:42;30.50;38.20
22383;DHT22;11359;45.802;13.530;2022-07-04T08:29:17;30.60;38.10
22383;DHT22;11359;45.802;13.530;2022-07-04T08:31:43;30.60;38.00
22383;DHT22;11359;45.802;13.530;2022-07-04T08:34:09;30.70;38.00
22383;DHT22;11359;45.802;13.530;2022-07-04T08:36:34;30.70;37.90
22383;DHT22;11359;45.802;13.530;2022-07-04T08:39:00;30.80;37.90
22383;DHT22;11359;45.802;13.530;2022-07-04T08:41:27;30.80;37.90
22383;DHT22;11359;45.802;13.530;2022-07-04T08:43:55;30.80;37.80
22383;DHT22;11359;45.802;13.530;2022-07-04T08:46:24;30.90;37.80
22383;DHT22;11359;45.802;13.530;2022-07-04T08:48:52;30.90;37.70
22383;DHT22;11359;45.802;13.530;2022-07-04T08:54:22;31.00;37.40
22383;DHT22;11359;45.802;13.530;2022-07-04T08:57:08;31.10;37.00
22383;DHT22;11359;45.802;13.530;2022-07-04T08:59:53;31.10;37.00
22383;DHT22;11359;45.802;13.530;2022-07-04T09:02:21;31.20;36.80
22383;DHT22;11359;45.802;13.530;2022-07-04T09:04:49;31.20;36.10
22383;DHT22;11359;45.802;13.530;2022-07-04T09:07:15;31.20;36.00
22383;DHT22;11359;45.802;13.530;2022-07-04T09:09:41;31.30;36.00
22383;DHT22;11359;45.802;13.530;2022-07-04T09:12:08;31.40;35.80
22383;DHT22;11359;45.802;13.530;2022-07-04T09:14:35;31.50;35.40
22383;DHT22;11359;45.802;13.530;2022-07-04T09:17:00;31.50;35.30
22383;DHT22;11359;45.802;13.530;2022-07-04T09:19:26;31.60;35.40
22383;DHT22;11359;45.802;13.530;2022-07-04T09:21:52;31.60;35.30
22383;DHT22;11359;45.802;13.530;2022-07-04T09:24:44;31.70;35.10
22383;DHT22;11359;45.802;13.530;2022-07-04T09:27:10;31.70;34.80
22383;DHT22;11359;45.802;13.530;2022-07-04T09:29:51;31.80;34.90
22383;DHT22;11359;45.802;13.530;2022-07-04T09:34:59;31.80;34.70
22383;DHT22;11359;45.802;13.530;2022-07-04T09:37:56;31.90;34.70
22383;DHT22;11359;45.802;13.530;2022-07-04T09:40:29;31.90;34.60
22383;DHT22;11359;45.802;13.530;2022-07-04T09:43:00;32.00;34.50
22383;DHT22;11359;45.802;13.530;2022-07-04T09:45:27;32.00;34.30
22383;DHT22;11359;45.802;13.530;2022-07-04T09:47:58;32.00;34.10
22383;DHT22;11359;45.802;13.530;2022-07-04T09:50:26;32.10;33.80
22383;DHT22;11359;45.802;13.530;2022-07-04T09:52:56;32.10;33.80
22383;DHT22;11359;45.802;13.530;2022-07-04T09:57:48;32.20;33.50
22383;DHT22;11359;45.802;13.530;2022-07-04T10:00:38;32.30;33.60
22383;DHT22;11359;45.802;13.530;2022-07-04T10:03:26;32.30;33.50
22383;DHT22;11359;45.802;13.530;2022-07-04T10:08:31;32.50;33.20
22383;DHT22;11359;45.802;13.530;2022-07-04T10:10:58;32.50;33.20
22383;DHT22;11359;45.802;13.530;2022-07-04T10:13:25;32.50;33.20
22383;DHT22;11359;45.802;13.530;2022-07-04T10:15:51;32.60;33.90
22383;DHT22;11359;45.802;13.530;2022-07-04T10:18:21;32.60;33.20
22383;DHT22;11359;45.802;13.530;2022-07-04T10:20:48;32.70;33.10
22383;DHT22;11359;45.802;13.530;2022-07-04T10:23:15;32.70;33.10
22383;DHT22;11359;45.802;13.530;2022-07-04T10:25:42;32.80;33.30
22383;DHT22;11359;45.802;13.530;2022-07-04T10:28:08;32.90;33.00
22383;DHT22;11359;45.802;13.530;2022-07-04T10:30:37;32.90;32.90
22383;DHT22;11359;45.802;13.530;2022-07-04T10:33:07;32.90;33.20
22383;DHT22;11359;45.802;13.530;2022-07-04T10:35:51;33.00;33.50
22383;DHT22;11359;45.802;13.530;2022-07-04T10:38:21;33.00;33.60
22383;DHT22;11359;45.802;13.530;2022-07-04T10:41:05;33.10;33.80
22383;DHT22;11359;45.802;13.530;2022-07-04T10:48:29;33.20;34.80
22383;DHT22;11359;45.802;13.530;2022-07-04T10:51:05;33.20;34.90
22383;DHT22;11359;45.802;13.530;2022-07-04T10:53:33;33.20;35.00
22383;DHT22;11359;45.802;13.530;2022-07-04T10:58:43;33.30;35.40
22383;DHT22;11359;45.802;13.530;2022-07-04T11:01:12;33.40;35.30
22383;DHT22;11359;45.802;13.530;2022-07-04T11:03:49;33.40;35.20
22383;DHT22;11359;45.802;13.530;2022-07-04T11:09:18;33.50;35.00
22383;DHT22;11359;45.802;13.530;2022-07-04T11:12:01;33.50;35.20
22383;DHT22;11359;45.802;13.530;2022-07-04T11:14:47;33.50;35.20
22383;DHT22;11359;45.802;13.530;2022-07-04T11:17:21;33.50;35.10
22383;DHT22;11359;45.802;13.530;2022-07-04T11:19:59;33.50;35.20
22383;DHT22;11359;45.802;13.530;2022-07-04T11:22:26;33.60;35.30
22383;DHT22;11359;45.802;13.530;2022-07-04T11:24:52;33.60;35.20
22383;DHT22;11359;45.802;13.530;2022-07-04T11:27:21;33.60;34.90
22383;DHT22;11359;45.802;13.530;2022-07-04T11:29:54;33.70;34.90
22383;DHT22;11359;45.802;13.530;2022-07-04T11:32:21;33.70;34.50
22383;DHT22;11359;45.802;13.530;2022-07-04T11:34:47;33.70;34.60
22383;DHT22;11359;45.802;13.530;2022-07-04T11:37:14;33.80;34.40
22383;DHT22;11359;45.802;13.530;2022-07-04T11:39:40;33.80;33.80
22383;DHT22;11359;45.802;13.530;2022-07-04T11:42:06;33.80;33.80
22383;DHT22;11359;45.802;13.530;2022-07-04T11:44:50;33.90;33.90
22383;DHT22;11359;45.802;13.530;2022-07-04T11:50:01;33.90;33.50
22383;DHT22;11359;45.802;13.530;2022-07-04T11:55:05;34.00;33.40
22383;DHT22;11359;45.802;13.530;2022-07-04T11:57:36;34.00;33.40
22383;DHT22;11359;45.802;13.530;2022-07-04T12:02:34;34.10;33.50
22383;DHT22;11359;45.802;13.530;2022-07-04T12:05:01;34.10;33.50
22383;DHT22;11359;45.802;13.530;2022-07-04T12:07:29;34.10;33.60
22383;DHT22;11359;45.802;13.530;2022-07-04T12:10:16;34.20;33.60
22383;DHT22;11359;45.802;13.530;2022-07-04T12:12:55;34.20;33.60
22383;DHT22;11359;45.802;13.530;2022-07-04T12:15:22;34.30;33.60
22383;DHT22;11359;45.802;13.530;2022-07-04T12:17:54;34.30;33.60
22383;DHT22;11359;45.802;13.530;2022-07-04T12:20:20;34.40;33.70
22383;DHT22;11359;45.802;13.530;2022-07-04T12:22:50;34.50;34.40
22383;DHT22;11359;45.802;13.530;2022-07-04T12:25:25;34.50;34.60
22383;DHT22;11359;45.802;13.530;2022-07-04T12:28:10;34.60;34.90
22383;DHT22;11359;45.802;13.530;2022-07-04T12:30:38;34.60;35.20
22383;DHT22;11359;45.802;13.530;2022-07-04T12:33:07;34.70;35.50
22383;DHT22;11359;45.802;13.530;2022-07-04T12:35:38;34.70;35.80
22383;DHT22;11359;45.802;13.530;2022-07-04T12:40:48;34.70;36.20
22383;DHT22;11359;45.802;13.530;2022-07-04T12:43:14;34.80;36.60
22383;DHT22;11359;45.802;13.530;2022-07-04T12:45:57;34.80;36.90
22383;DHT22;11359;45.802;13.530;2022-07-04T12:48:26;34.80;37.40
22383;DHT22;11359;45.802;13.530;2022-07-04T12:50:52;34.80;37.90
22383;DHT22;11359;45.802;13.530;2022-07-04T12:53:19;34.80;38.40
22383;DHT22;11359;45.802;13.530;2022-07-04T12:55:46;34.90;38.90
22383;DHT22;11359;45.802;13.530;2022-07-04T12:58:13;35.00;39.50
22383;DHT22;11359;45.802;13.530;2022-07-04T13:00:39;35.00;39.90
22383;DHT22;11359;45.802;13.530;2022-07-04T13:03:05;35.20;40.10
22383;DHT22;11359;45.802;13.530;2022-07-04T13:05:33;35.30;40.20
22383;DHT22;11359;45.802;13.530;2022-07-04T13:08:00;35.40;40.30
22383;DHT22;11359;45.802;13.530;2022-07-04T13:10:26;35.40;40.40
22383;DHT22;11359;45.802;13.530;2022-07-04T13:12:52;35.50;40.70
22383;DHT22;11359;45.802;13.530;2022-07-04T13:15:18;35.70;41.00
22383;DHT22;11359;45.802;13.530;2022-07-04T13:17:43;35.90;41.00
22383;DHT22;11359;45.802;13.530;2022-07-04T13:20:09;36.00;41.10
22383;DHT22;11359;45.802;13.530;2022-07-04T13:22:35;36.10;41.10
22383;DHT22;11359;45.802;13.530;2022-07-04T13:25:01;36.30;40.90
22383;DHT22;11359;45.802;13.530;2022-07-04T13:27:29;36.40;40.60
22383;DHT22;11359;45.802;13.530;2022-07-04T13:29:55;36.40;40.30
22383;DHT22;11359;45.802;13.530;2022-07-04T13:32:20;36.50;40.10
22383;DHT22;11359;45.802;13.530;2022-07-04T13:34:46;36.60;40.40
22383;DHT22;11359;45.802;13.530;2022-07-04T13:37:12;36.80;41.00
22383;DHT22;11359;45.802;13.530;2022-07-04T13:39:40;37.10;41.50
22383;DHT22;11359;45.802;13.530;2022-07-04T13:42:06;37.40;41.60
22383;DHT22;11359;45.802;13.530;2022-07-04T13:44:32;37.80;41.50
22383;DHT22;11359;45.802;13.530;2022-07-04T13:46:57;38.10;41.00
22383;DHT22;11359;45.802;13.530;2022-07-04T13:49:24;38.40;40.40
22383;DHT22;11359;45.802;13.530;2022-07-04T13:51:50;38.40;39.50
22383;DHT22;11359;45.802;13.530;2022-07-04T13:54:16;38.40;38.70
22383;DHT22;11359;45.802;13.530;2022-07-04T13:56:42;38.30;38.10
22383;DHT22;11359;45.802;13.530;2022-07-04T13:59:08;38.10;37.80
22383;DHT22;11359;45.802;13.530;2022-07-04T14:01:35;37.90;37.70
22383;DHT22;11359;45.802;13.530;2022-07-04T14:04:01;37.70;37.60
22383;DHT22;11359;45.802;13.530;2022-07-04T14:06:27;37.50;37.90
22383;DHT22;11359;45.802;13.530;2022-07-04T14:08:52;37.30;38.00
22383;DHT22;11359;45.802;13.530;2022-07-04T14:11:18;37.10;38.50
22383;DHT22;11359;45.802;13.530;2022-07-04T14:13:44;37.00;39.00
22383;DHT22;11359;45.802;13.530;2022-07-04T14:16:10;36.90;39.20
22383;DHT22;11359;45.802;13.530;2022-07-04T14:18:36;36.80;39.20
22383;DHT22;11359;45.802;13.530;2022-07-04T14:21:01;36.80;39.30
22383;DHT22;11359;45.802;13.530;2022-07-04T14:23:27;36.80;39.60
22383;DHT22;11359;45.802;13.530;2022-07-04T14:26:12;36.90;40.40
22383;DHT22;11359;45.802;13.530;2022-07-04T14:28:38;37.10;41.20
22383;DHT22;11359;45.802;13.530;2022-07-04T14:31:04;37.40;41.50
22383;DHT22;11359;45.802;13.530;2022-07-04T14:33:30;37.60;41.20
22383;DHT22;11359;45.802;13.530;2022-07-04T14:35:56;37.80;40.90
22383;DHT22;11359;45.802;13.530;2022-07-04T14:38:22;38.10;40.70
22383;DHT22;11359;45.802;13.530;2022-07-04T14:40:47;38.20;40.30
22383;DHT22;11359;45.802;13.530;2022-07-04T14:43:18;38.40;39.90
22383;DHT22;11359;45.802;13.530;2022-07-04T14:45:44;38.50;39.60
22383;DHT22;11359;45.802;13.530;2022-07-04T14:48:10;38.70;39.60
22383;DHT22;11359;45.802;13.530;2022-07-04T14:50:36;38.90;39.90
22383;DHT22;11359;45.802;13.530;2022-07-04T14:53:01;39.00;40.00
22383;DHT22;11359;45.802;13.530;2022-07-04T14:55:27;39.20;40.00
22383;DHT22;11359;45.802;13.530;2022-07-04T14:57:53;39.40;39.50
22383;DHT22;11359;45.802;13.530;2022-07-04T15:00:18;39.50;38.50
22383;DHT22;11359;45.802;13.530;2022-07-04T15:02:44;39.50;37.70
22383;DHT22;11359;45.802;13.530;2022-07-04T15:05:12;39.40;37.20
22383;DHT22;11359;45.802;13.530;2022-07-04T15:07:38;39.30;37.10
22383;DHT22;11359;45.802;13.530;2022-07-04T15:10:05;39.30;37.60
22383;DHT22;11359;45.802;13.530;2022-07-04T15:12:33;39.40;38.20
22383;DHT22;11359;45.802;13.530;2022-07-04T15:14:59;39.50;38.40
22383;DHT22;11359;45.802;13.530;2022-07-04T15:17:25;39.80;38.50
22383;DHT22;11359;45.802;13.530;2022-07-04T15:19:50;40.10;38.40
22383;DHT22;11359;45.802;13.530;2022-07-04T15:22:35;40.40;38.10
22383;DHT22;11359;45.802;13.530;2022-07-04T15:25:19;40.60;37.60
22383;DHT22;11359;45.802;13.530;2022-07-04T15:27:44;41.00;37.20
22383;DHT22;11359;45.802;13.530;2022-07-04T15:30:10;41.20;36.90
22383;DHT22;11359;45.802;13.530;2022-07-04T15:32:36;41.40;36.50
22383;DHT22;11359;45.802;13.530;2022-07-04T15:35:02;41.60;36.30
22383;DHT22;11359;45.802;13.530;2022-07-04T15:37:28;41.80;36.00
22383;DHT22;11359;45.802;13.530;2022-07-04T15:39:54;42.00;35.60
22383;DHT22;11359;45.802;13.530;2022-07-04T15:42:20;42.20;35.20
22383;DHT22;11359;45.802;13.530;2022-07-04T15:44:45;42.40;34.80
22383;DHT22;11359;45.802;13.530;2022-07-04T15:47:11;42.50;34.50
22383;DHT22;11359;45.802;13.530;2022-07-04T15:49:37;42.60;34.30